Time;durP1;ratioP1;P1;durP2;ratioP2;P2;SDS_P1;SDS_P2;PMS_P1;PMS_P2;Temp;Humidity;BMP_temperature;BMP_pressure;BME280_temperature;BME280_humidity;BME280_pressure;Samples;Min_cycle;Max_cycle;Signal;HPM_P1;HPM_P2
2024/01/08 00:03:43;;;;;;;1.70;1.60;;;;;;;0.18;70.15;99761.59;7264147;39;20240;31
2024/01/08 00:09:01;;;;;;;1.60;1.20;;;;;;;0.17;69.56;99767.88;7339622;39;20252;31
2024/01/08 00:14:37;;;;;;;2.50;1.70;;;;;;;0.19;70.10;99760.66;7291602;39;20261;31
2024/01/08 00:19:54;;;;;;;1.95;1.65;;;;;;;0.31;70.46;99766.13;7055019;40;20211;31
2024/01/08 00:25:30;;;;;;;2.10;1.60;;;;;;;0.22;70.13;99757.87;7240188;40;20237;31
2024/01/08 00:31:06;;;;;;;2.20;1.60;;;;;;;0.26;70.18;99762.03;7188725;40;20262;31
2024/01/08 00:41:42;;;;;;;2.14;1.84;;;;;;;0.29;70.15;99753.91;7196508;40;21258;31
2024/01/08 00:47:19;;;;;;;1.90;1.50;;;;;;;0.24;69.69;99746.22;7193190;40;20239;31
2024/01/08 00:52:55;;;;;;;2.30;1.85;;;;;;;0.23;70.14;99759.53;7194239;40;20232;31
2024/01/08 00:58:30;;;;;;;2.37;1.70;;;;;;;0.30;70.97;99758.28;7183703;40;20317;31
2024/01/08 01:04:06;;;;;;;3.40;1.70;;;;;;;0.30;71.32;99758.28;7188543;40;20246;31
2024/01/08 01:09:26;;;;;;;2.80;1.60;;;;;;;0.33;70.53;99756.28;7166689;40;20253;31
2024/01/08 01:20:07;;;;;;;1.80;1.53;;;;;;;0.31;71.09;99754.66;7317249;39;20260;31
2024/01/08 01:30:32;;;;;;;1.60;1.40;;;;;;;0.39;70.72;99771.00;7311299;39;20323;31
2024/01/08 01:41:13;;;;;;;2.20;1.55;;;;;;;0.30;71.05;99768.88;7330601;39;20400;31
2024/01/08 01:46:50;;;;;;;1.90;1.50;;;;;;;0.29;70.64;99765.37;7260921;40;20391;31
2024/01/08 01:52:26;;;;;;;2.00;1.60;;;;;;;0.32;70.68;99759.88;7190877;40;20385;31
2024/01/08 01:58:03;;;;;;;1.90;1.50;;;;;;;0.33;70.85;99766.91;7219913;40;20312;31
2024/01/08 02:03:38;;;;;;;2.40;1.63;;;;;;;0.34;70.85;99754.50;7179128;40;20341;31
2024/01/08 02:08:59;;;;;;;3.75;1.60;;;;;;;0.42;70.61;99765.50;7179158;40;20252;31
2024/01/08 02:14:35;;;;;;;2.13;1.60;;;;;;;0.43;70.96;99756.63;7184783;40;20396;31
2024/01/08 02:19:55;;;;;;;3.57;1.53;;;;;;;0.45;71.25;99762.66;7111895;40;20278;31
2024/01/08 02:25:31;;;;;;;2.25;1.60;;;;;;;0.37;71.40;99752.53;7132471;40;20668;31
2024/01/08 02:30:52;;;;;;;1.60;1.27;;;;;;;0.40;71.42;99754.97;7199004;40;20250;31
2024/01/08 02:36:27;;;;;;;2.07;1.70;;;;;;;0.33;71.37;99739.53;7202825;40;20265;31
2024/01/08 02:42:04;;;;;;;1.70;1.30;;;;;;;0.26;71.43;99735.53;7180132;40;20247;31
2024/01/08 02:47:25;;;;;;;2.27;1.33;;;;;;;0.29;70.98;99738.00;7149170;40;20484;31
2024/01/08 02:52:45;;;;;;;2.15;1.50;;;;;;;0.29;71.17;99746.81;7139042;40;20248;31
2024/01/08 02:58:22;;;;;;;2.53;1.40;;;;;;;0.27;71.08;99742.53;7166113;40;20709;31
2024/01/08 03:03:42;;;;;;;1.37;1.27;;;;;;;0.29;71.17;99745.94;7214063;40;20356;31
2024/01/08 03:09:17;;;;;;;2.55;1.55;;;;;;;0.26;71.18;99751.44;7260163;39;20276;31
2024/01/08 03:19:59;;;;;;;1.77;1.33;;;;;;;0.29;71.03;99748.59;7230664;40;20279;31
2024/01/08 03:30:39;;;;;;;1.60;1.40;;;;;;;0.30;71.71;99748.53;7252944;39;20275;31
2024/01/08 03:36:16;;;;;;;1.80;1.40;;;;;;;0.31;71.21;99746.69;7258411;40;20242;31
2024/01/08 03:41:52;;;;;;;2.75;1.70;;;;;;;0.31;71.03;99747.56;7235593;40;20258;31
2024/01/08 03:47:27;;;;;;;2.80;1.60;;;;;;;0.33;71.59;99756.28;7220463;40;20243;31
2024/01/08 03:53:04;;;;;;;1.90;1.40;;;;;;;0.32;71.55;99757.22;7191259;40;20382;31
2024/01/08 03:58:25;;;;;;;2.13;1.57;;;;;;;0.34;71.53;99759.81;7175495;40;20249;31
2024/01/08 04:03:59;;;;;;;1.50;1.30;;;;;;;0.29;70.94;99752.09;7230876;40;20246;31
2024/01/08 04:09:37;;;;;;;2.15;1.50;;;;;;;0.29;71.01;99767.16;7227827;40;20669;31
2024/01/08 04:14:57;;;;;;;2.37;1.50;;;;;;;0.34;71.78;99765.09;7198150;40;20313;31
2024/01/08 04:20:32;;;;;;;1.60;1.30;;;;;;;0.33;71.65;99755.44;7176524;40;20663;31
2024/01/08 04:26:08;;;;;;;2.50;1.50;;;;;;;0.39;71.37;99763.91;7185666;40;21357;31
2024/01/08 04:31:44;;;;;;;2.07;1.60;;;;;;;0.38;71.82;99762.19;7206983;40;20235;31
2024/01/08 04:37:19;;;;;;;1.20;1.10;;;;;;;0.29;71.26;99775.97;7182425;40;20321;31
2024/01/08 04:42:56;;;;;;;1.93;1.60;;;;;;;0.33;71.78;99771.34;7147742;40;20254;31
2024/01/08 04:48:17;;;;;;;1.60;1.50;;;;;;;0.45;71.78;99783.88;7134344;40;20317;31
2024/01/08 04:53:52;;;;;;;2.20;1.50;;;;;;;0.47;71.73;99779.34;7141090;40;20392;31
2024/01/08 04:59:27;;;;;;;1.75;1.50;;;;;;;0.48;71.09;99774.91;7170192;40;20470;31
2024/01/08 05:05:04;;;;;;;1.35;1.25;;;;;;;0.42;71.54;99779.63;7235878;39;20304;31
2024/01/08 05:10:24;;;;;;;2.00;1.60;;;;;;;0.42;71.57;99773.47;7197523;40;20250;31
2024/01/08 05:16:00;;;;;;;1.50;1.40;;;;;;;0.38;72.11;99777.22;7217401;40;20379;31
2024/01/08 05:21:21;;;;;;;1.60;1.50;;;;;;;0.45;71.43;99786.53;7190945;40;20248;31
2024/01/08 05:26:41;;;;;;;1.55;1.45;;;;;;;0.43;72.41;99791.09;7206840;40;20246;31
2024/01/08 05:32:14;;;;;;;3.10;1.73;;;;;;;0.37;71.47;99789.63;7210570;40;20251;31
2024/01/08 05:37:36;;;;;;;2.20;1.63;;;;;;;0.40;72.41;99793.88;7261337;39;20256;31
2024/01/08 05:43:10;;;;;;;3.10;1.70;;;;;;;0.34;70.80;99799.56;7264132;40;20257;31
2024/01/08 05:48:47;;;;;;;2.47;1.80;;;;;;;0.29;70.87;99791.88;7250595;40;20267;31
2024/01/08 05:54:09;;;;;;;1.90;1.50;;;;;;;0.36;70.83;99800.31;7276914;39;20786;31
2024/01/08 05:59:40;;;;;;;2.23;1.63;;;;;;;0.34;71.47;99800.41;7330084;39;20240;31
2024/01/08 06:05:13;;;;;;;1.80;1.40;;;;;;;0.28;71.77;99799.91;7301797;39;20259;31
2024/01/08 06:15:54;;;;;;;2.00;1.60;;;;;;;0.28;71.37;99805.19;7221289;40;20703;31
2024/01/08 06:21:30;;;;;;;2.10;1.40;;;;;;;0.24;71.69;99811.63;7225222;40;20241;31
2024/01/08 06:27:06;;;;;;;2.33;1.80;;;;;;;0.28;72.00;99810.50;7196880;40;20693;31
2024/01/08 06:32:43;;;;;;;3.05;1.90;;;;;;;0.25;71.85;99806.25;7156255;40;20683;31
2024/01/08 06:38:20;;;;;;;1.90;1.57;;;;;;;0.29;71.32;99807.78;7160350;40;20373;31
2024/01/08 06:43:41;;;;;;;2.65;1.60;;;;;;;0.30;71.24;99812.16;7190632;40;20257;31
2024/01/08 06:49:16;;;;;;;3.27;2.00;;;;;;;0.30;71.28;99811.28;7198533;40;20236;31
2024/01/08 06:54:52;;;;;;;2.33;1.70;;;;;;;0.24;71.27;99801.88;6948257;40;21193;31
2024/01/08 07:00:13;;;;;;;1.50;1.40;;;;;;;0.24;71.64;99809.84;7181675;40;20303;31
2024/01/08 07:05:48;;;;;;;2.15;1.85;;;;;;;0.24;71.37;99816.91;7210095;40;20455;31
2024/01/08 07:11:24;;;;;;;3.15;2.10;;;;;;;0.18;71.78;99826.06;7196416;40;20318;31
2024/01/08 07:17:00;;;;;;;2.00;1.70;;;;;;;0.26;72.09;99828.31;7244377;39;20241;31
2024/01/08 07:22:20;;;;;;;2.37;1.80;;;;;;;0.20;71.01;99831.28;7282356;39;20245;31
2024/01/08 07:27:56;;;;;;;2.60;2.33;;;;;;;0.12;70.95;99831.72;7276446;40;20265;31
2024/01/08 07:33:31;;;;;;;2.93;2.00;;;;;;;0.18;71.49;99830.50;7185619;40;20353;31
2024/01/08 07:44:10;;;;;;;2.33;2.00;;;;;;;0.14;70.73;99834.28;7170347;40;20258;31
2024/01/08 07:54:31;;;;;;;2.83;2.30;;;;;;;0.18;70.86;99843.75;7283498;39;21745;31
2024/01/08 08:05:07;;;;;;;2.67;2.13;;;;;;;0.15;71.50;99849.25;7323169;39;21309;31
2024/01/08 08:15:43;;;;;;;2.50;2.30;;;;;;;0.16;70.41;99864.22;7289129;39;21470;31
2024/01/08 08:21:20;;;;;;;2.80;2.15;;;;;;;0.22;70.77;99864.72;7257627;40;20242;31
2024/01/08 08:26:40;;;;;;;2.30;1.80;;;;;;;0.23;70.83;99873.50;7198554;40;20261;31
2024/01/08 08:32:01;;;;;;;3.30;2.03;;;;;;;0.21;70.91;99872.75;7237449;40;20245;31
2024/01/08 08:37:37;;;;;;;2.80;1.50;;;;;;;0.17;70.25;99876.53;7240928;40;20299;31
2024/01/08 08:42:57;;;;;;;3.37;2.13;;;;;;;0.20;70.77;99885.16;7253510;40;20351;31
2024/01/08 08:53:38;;;;;;;2.23;1.90;;;;;;;0.26;70.61;99881.31;7307372;39;20287;31
2024/01/08 09:04:03;;;;;;;2.57;2.13;;;;;;;0.37;70.05;99893.03;7301767;39;20269;31
2024/01/08 09:09:37;;;;;;;2.20;1.80;;;;;;;0.31;68.88;99900.44;7319142;39;20308;31
2024/01/08 09:20:17;;;;;;;2.90;1.80;;;;;;;0.29;68.14;99903.22;7340132;39;20262;31
2024/01/08 09:25:53;;;;;;;3.70;1.95;;;;;;;0.25;68.44;99906.97;7236184;40;20235;31
2024/01/08 09:31:13;;;;;;;2.80;2.30;;;;;;;0.38;69.34;99912.44;7253744;40;20242;31
2024/01/08 09:36:48;;;;;;;3.55;2.10;;;;;;;0.36;67.94;99899.25;7279111;39;20375;31
2024/01/08 09:42:24;;;;;;;3.00;2.10;;;;;;;0.25;66.74;99904.31;7190894;40;20242;31
2024/01/08 09:47:44;;;;;;;3.50;2.40;;;;;;;0.35;68.01;99909.97;7238010;40;20341;31
2024/01/08 09:53:19;;;;;;;2.63;2.10;;;;;;;0.35;68.31;99920.56;7220891;40;20234;31
2024/01/08 09:58:56;;;;;;;2.50;2.00;;;;;;;0.38;67.94;99915.94;7217613;40;20238;31
2024/01/08 10:04:31;;;;;;;2.60;2.00;;;;;;;0.34;68.35;99914.41;7190713;40;21410;31
2024/01/08 10:09:51;;;;;;;5.17;2.07;;;;;;;0.41;67.74;99912.25;7277990;39;20334;31
2024/01/08 10:15:28;;;;;;;3.20;2.20;;;;;;;0.43;67.20;99916.56;7228368;40;20295;31
2024/01/08 10:26:19;;;;;;;2.55;2.10;;;;;;;0.39;67.40;99919.47;7259150;40;21270;31
2024/01/08 10:37:00;;;;;;;3.97;2.50;;;;;;;0.27;68.04;99926.28;7250428;40;20398;31
2024/01/08 10:47:38;;;;;;;3.20;2.07;;;;;;;0.12;67.84;99920.97;7286354;39;21320;31
2024/01/08 10:53:15;;;;;;;2.80;2.00;;;;;;;0.14;67.33;99927.03;7298873;39;20349;31
2024/01/08 10:58:51;;;;;;;3.60;2.30;;;;;;;0.15;66.59;99916.34;7288943;40;20237;31
2024/01/08 11:04:26;;;;;;;2.90;2.20;;;;;;;0.05;65.63;99924.87;7280101;40;20326;31
2024/01/08 11:10:03;;;;;;;2.90;2.17;;;;;;;-0.10;64.68;99916.84;7228797;40;20342;31
2024/01/08 11:15:39;;;;;;;4.63;2.57;;;;;;;-0.04;65.27;99919.13;7130136;40;20303;31
2024/01/08 11:21:15;;;;;;;3.30;2.17;;;;;;;0.00;66.09;99923.34;7139232;40;20263;31
2024/01/08 11:32:15;;;;;;;3.53;2.30;;;;;;;0.08;64.91;99908.84;7181923;40;21307;31
2024/01/08 11:37:52;;;;;;;4.97;2.60;;;;;;;0.05;65.45;99898.38;7296501;39;20454;31
2024/01/08 11:43:27;;;;;;;2.85;2.00;;;;;;;-0.13;64.69;99905.53;7276234;39;20247;31
2024/01/08 11:48:47;;;;;;;6.63;2.87;;;;;;;-0.13;65.77;99895.78;7218461;40;20238;31
2024/01/08 11:54:23;;;;;;;5.20;2.60;;;;;;;-0.06;65.29;99901.63;7178430;40;20254;31
2024/01/08 11:59:59;;;;;;;4.67;2.93;;;;;;;-0.15;64.64;99902.97;7162556;40;20485;31
2024/01/08 12:05:20;;;;;;;4.03;2.60;;;;;;;-0.10;65.00;99911.53;7174108;40;20258;31
2024/01/08 12:10:57;;;;;;;4.43;2.60;;;;;;;-0.03;64.95;99906.75;7230140;40;20300;31
2024/01/08 12:16:17;;;;;;;5.17;2.90;;;;;;;-0.01;64.63;99911.03;7208211;40;20242;31
2024/01/08 12:21:51;;;;;;;3.43;2.50;;;;;;;-0.02;64.74;99906.69;7236078;39;20264;31
2024/01/08 12:27:31;;;;;;;3.00;2.30;;;;;;;-0.05;63.17;99896.25;7199401;40;20324;31
2024/01/08 12:32:48;;;;;;;3.20;2.33;;;;;;;-0.02;63.62;99908.47;7216786;40;21493;31
2024/01/08 12:38:23;;;;;;;3.45;2.60;;;;;;;0.04;63.33;99916.09;7207817;40;20328;31
2024/01/08 12:44:03;;;;;;;3.83;2.77;;;;;;;0.23;63.20;99906.19;7255571;40;20599;31
2024/01/08 12:49:36;;;;;;;3.27;2.63;;;;;;;0.11;61.86;99908.66;7219631;40;20250;31
2024/01/08 12:54:58;;;;;;;4.13;3.07;;;;;;;0.12;63.52;99907.72;7233857;40;20261;31
2024/01/08 13:05:33;;;;;;;4.00;2.80;;;;;;;0.13;63.27;99912.09;7297626;39;21424;31
2024/01/08 13:10:55;;;;;;;3.60;2.87;;;;;;;0.10;63.20;99909.59;7241872;40;20790;31
2024/01/08 13:16:15;;;;;;;4.30;2.73;;;;;;;0.15;62.63;99918.16;7231780;40;20245;31
2024/01/08 13:21:50;;;;;;;3.40;2.45;;;;;;;0.13;62.92;99920.03;7279030;40;20241;31
2024/01/08 13:27:13;;;;;;;3.53;2.03;;;;;;;0.22;61.21;99924.84;7274563;39;20607;31
2024/01/08 13:32:32;;;;;;;2.90;2.20;;;;;;;0.12;62.39;99926.28;7292177;39;20316;31
2024/01/08 13:38:08;;;;;;;3.23;2.23;;;;;;;0.10;61.28;99934.28;7308175;39;20253;31
2024/01/08 13:48:30;;;;;;;3.23;2.30;;;;;;;0.03;62.32;99938.22;7260730;39;21457;31
2024/01/08 13:54:07;;;;;;;3.20;2.43;;;;;;;0.08;61.62;99937.97;7240512;40;20390;31
2024/01/08 13:59:27;;;;;;;3.67;2.60;;;;;;;0.19;62.11;99939.09;7269183;39;20255;31
2024/01/08 14:05:02;;;;;;;3.85;2.45;;;;;;;0.20;62.82;99943.47;7318023;39;20245;31
2024/01/08 14:10:38;;;;;;;3.85;2.30;;;;;;;0.19;62.29;99943.53;7288880;39;20238;31
2024/01/08 14:16:14;;;;;;;6.50;2.30;;;;;;;0.19;62.70;99947.06;7017934;40;21108;31
2024/01/08 14:21:50;;;;;;;3.53;2.30;;;;;;;0.04;63.32;99947.03;7257510;40;20759;31
2024/01/08 14:32:31;;;;;;;3.40;2.50;;;;;;;-0.09;63.71;99954.78;7232304;40;20278;31
2024/01/08 14:38:06;;;;;;;4.15;2.90;;;;;;;-0.03;63.19;99957.94;7201004;40;20423;31
2024/01/08 14:43:42;;;;;;;3.40;2.40;;;;;;;-0.16;61.80;99961.31;7197863;40;20282;31
2024/01/08 14:49:18;;;;;;;3.45;2.85;;;;;;;-0.31;61.31;99967.44;7161489;40;20251;31
2024/01/08 14:54:53;;;;;;;4.45;3.00;;;;;;;-0.36;62.39;99972.13;7182194;40;20388;31
2024/01/08 15:00:13;;;;;;;3.13;2.57;;;;;;;-0.36;61.78;99975.63;7110928;40;20352;31
2024/01/08 15:05:47;;;;;;;4.10;2.90;;;;;;;-0.40;62.14;99974.06;7160715;40;20356;31
2024/01/08 15:11:22;;;;;;;5.37;3.20;;;;;;;-0.43;61.29;99976.84;7179465;40;20231;31
2024/01/08 15:16:57;;;;;;;4.80;3.15;;;;;;;-0.52;61.89;99986.13;7178050;40;20285;31
2024/01/08 15:22:33;;;;;;;6.00;3.05;;;;;;;-0.55;61.82;99988.94;7166373;40;20240;31
2024/01/08 15:28:08;;;;;;;4.25;3.15;;;;;;;-0.47;62.28;99997.34;7178757;40;20258;31
2024/01/08 15:33:28;;;;;;;3.80;3.00;;;;;;;-0.56;63.11;100004.88;7216690;40;20348;31
2024/01/08 15:39:05;;;;;;;4.80;3.30;;;;;;;-0.59;62.43;99997.09;7212007;40;20255;31
2024/01/08 15:44:40;;;;;;;4.07;2.70;;;;;;;-0.54;63.29;100000.37;7148399;40;20253;31
2024/01/08 15:55:22;;;;;;;4.90;3.20;;;;;;;-0.65;62.07;100018.56;7253211;40;20762;31
2024/01/08 16:00:57;;;;;;;4.87;3.40;;;;;;;-0.68;61.75;100022.25;7210190;40;20304;31
2024/01/08 16:06:20;;;;;;;3.20;2.10;;;;;;;-0.79;62.13;100036.94;7179181;40;20247;31
2024/01/08 16:11:51;;;;;;;6.17;3.43;;;;;;;-0.85;61.26;100043.38;7163824;40;20251;31
2024/01/08 16:17:11;;;;;;;6.50;3.85;;;;;;;-0.81;62.83;100049.38;7160954;40;20240;31
2024/01/08 16:22:32;;;;;;;6.37;4.00;;;;;;;-0.81;63.07;100052.91;7197376;40;20246;31
2024/01/08 16:28:08;;;;;;;5.85;3.45;;;;;;;-0.81;63.19;100058.19;7200791;40;20372;31
2024/01/08 16:33:28;;;;;;;4.90;3.10;;;;;;;-0.74;62.66;100071.97;7187072;40;20415;31
2024/01/08 16:39:04;;;;;;;5.03;3.13;;;;;;;-0.78;62.99;100065.97;7245077;40;20234;31
2024/01/08 16:44:40;;;;;;;5.27;3.60;;;;;;;-0.86;62.28;100068.13;7214068;40;20344;31
2024/01/08 16:50:00;;;;;;;3.10;2.13;;;;;;;-0.86;61.80;100083.12;7216157;40;20258;31
2024/01/08 16:55:21;;;;;;;7.17;3.50;;;;;;;-0.87;63.06;100084.06;7257972;40;20262;31
2024/01/08 17:00:56;;;;;;;5.03;3.33;;;;;;;-0.92;62.21;100090.44;7292056;39;20244;31
2024/01/08 17:06:18;;;;;;;5.70;4.05;;;;;;;-0.89;62.78;100088.59;7248146;40;20304;31
2024/01/08 17:11:52;;;;;;;7.23;4.20;;;;;;;-0.85;63.04;100092.81;7221079;40;20231;31
2024/01/08 17:17:28;;;;;;;5.50;4.20;;;;;;;-0.89;64.02;100110.63;7207065;40;20265;31
2024/01/08 17:23:03;;;;;;;7.17;4.53;;;;;;;-0.91;63.74;100118.63;7187579;40;20337;31
2024/01/08 17:33:40;;;;;;;7.17;4.70;;;;;;;-1.05;64.83;100114.87;7170477;40;21405;31
2024/01/08 17:44:20;;;;;;;7.55;4.80;;;;;;;-1.05;66.26;100126.34;7259386;39;20832;31
2024/01/08 17:55:01;;;;;;;8.47;5.10;;;;;;;-1.27;66.41;100136.19;7283822;39;20846;31
2024/01/08 18:00:36;;;;;;;7.85;5.10;;;;;;;-1.31;66.42;100139.88;7260528;40;20312;31
2024/01/08 18:06:11;;;;;;;8.35;5.05;;;;;;;-1.48;65.87;100138.00;7234760;40;20231;31
2024/01/08 18:11:45;;;;;;;7.40;5.10;;;;;;;-1.68;65.85;100145.09;7196907;40;20236;31
2024/01/08 18:17:20;;;;;;;6.65;5.15;;;;;;;-1.74;66.72;100151.50;7198487;40;20257;31
2024/01/08 18:22:40;;;;;;;9.15;5.20;;;;;;;-1.74;66.35;100155.94;7211181;40;20381;31
2024/01/08 18:28:16;;;;;;;8.40;5.17;;;;;;;-1.77;66.43;100164.00;7229287;39;20239;31
2024/01/08 18:33:36;;;;;;;7.05;4.70;;;;;;;-1.95;67.09;100166.50;7265582;40;20253;31
2024/01/08 18:38:58;;;;;;;8.13;4.60;;;;;;;-2.02;67.27;100172.94;7294562;39;20398;31
2024/01/08 18:44:34;;;;;;;10.57;5.43;;;;;;;-2.09;67.43;100168.84;7300577;39;20245;31
2024/01/08 18:49:55;;;;;;;8.00;5.30;;;;;;;-2.07;67.46;100177.59;7252835;40;20243;31
2024/01/08 19:00:36;;;;;;;8.37;4.70;;;;;;;-2.39;67.23;100186.81;7270498;40;20875;31
2024/01/08 19:11:13;;;;;;;9.55;5.05;;;;;;;-2.40;68.00;100200.06;7317566;39;20729;31
2024/01/08 19:16:49;;;;;;;17.90;8.00;;;;;;;-2.47;67.67;100202.09;7320056;39;20241;31
2024/01/08 19:22:24;;;;;;;10.40;6.10;;;;;;;-2.43;67.60;100202.84;7278295;40;20272;31
2024/01/08 19:27:45;;;;;;;14.40;6.40;;;;;;;-2.41;68.18;100208.88;7261386;40;20238;31
2024/01/08 19:33:21;;;;;;;10.30;6.20;;;;;;;-2.52;67.58;100211.09;7281638;39;20252;31
2024/01/08 19:38:56;;;;;;;10.50;6.10;;;;;;;-2.46;67.84;100211.75;7255540;40;20354;31
2024/01/08 19:44:17;;;;;;;10.95;5.95;;;;;;;-2.53;68.62;100212.88;7277695;39;20245;31
2024/01/08 19:49:53;;;;;;;10.63;5.67;;;;;;;-2.61;68.65;100229.94;7247462;40;20371;31
2024/01/08 19:55:14;;;;;;;28.73;11.93;;;;;;;-2.68;68.23;100234.59;7204867;40;20231;31
2024/01/08 20:00:33;;;;;;;7.03;4.43;;;;;;;-2.73;68.44;100231.28;7188311;40;20258;31
2024/01/08 20:06:08;;;;;;;10.30;6.37;;;;;;;-2.80;68.91;100233.25;7227523;40;20262;31
2024/01/08 20:11:29;;;;;;;10.93;6.20;;;;;;;-2.87;68.90;100239.69;7205359;40;20265;31
2024/01/08 20:17:04;;;;;;;5.60;3.33;;;;;;;-2.94;69.08;100229.44;7239443;39;20242;31
2024/01/08 20:22:35;;;;;;;8.00;5.10;;;;;;;-3.04;69.17;100236.81;7258648;40;20293;31
2024/01/08 20:27:56;;;;;;;10.30;6.20;;;;;;;-3.04;68.95;100235.97;7207329;40;20403;31
2024/01/08 20:33:32;;;;;;;8.20;6.07;;;;;;;-3.03;68.86;100241.19;7193847;40;20309;31
2024/01/08 20:39:06;;;;;;;10.35;6.00;;;;;;;-3.01;68.97;100235.84;7188608;40;20257;31
2024/01/08 20:44:40;;;;;;;10.57;5.87;;;;;;;-3.06;69.25;100221.97;7226789;40;20412;31
2024/01/08 20:55:22;;;;;;;8.70;5.45;;;;;;;-3.14;68.53;100235.44;7272937;39;20413;31
2024/01/08 21:00:42;;;;;;;9.00;6.03;;;;;;;-3.13;68.64;100231.03;7223720;40;20238;31
2024/01/08 21:06:14;;;;;;;7.87;4.97;;;;;;;-3.13;68.74;100231.03;6958494;40;20243;31
2024/01/08 21:11:50;;;;;;;9.93;5.83;;;;;;;-3.25;68.92;100224.44;7173181;40;20440;31
2024/01/08 21:22:12;;;;;;;7.90;5.30;;;;;;;-3.20;68.40;100239.16;7189215;40;21373;31
2024/01/08 21:27:47;;;;;;;7.27;4.57;;;;;;;-3.25;68.89;100245.53;7243339;40;20249;31
2024/01/08 21:33:22;;;;;;;8.20;5.37;;;;;;;-3.19;68.65;100226.81;7298635;39;20240;31
2024/01/08 21:38:57;;;;;;;11.50;5.75;;;;;;;-3.22;68.61;100240.13;7263262;40;20240;31
2024/01/08 21:44:33;;;;;;;7.95;5.20;;;;;;;-3.32;68.22;100233.44;7250066;40;20396;31
2024/01/08 21:50:08;;;;;;;9.80;5.33;;;;;;;-3.36;68.71;100231.84;7236909;40;20395;31
2024/01/08 21:55:43;;;;;;;8.60;4.80;;;;;;;-3.42;68.02;100242.62;7202820;40;20425;31
2024/01/08 22:01:19;;;;;;;7.17;3.67;;;;;;;-3.42;68.49;100237.34;7217330;40;20250;31
2024/01/08 22:06:39;;;;;;;8.77;5.70;;;;;;;-3.38;68.63;100237.16;7183015;40;20354;31
2024/01/08 22:11:59;;;;;;;7.27;4.23;;;;;;;-3.44;68.41;100237.41;7199751;40;20472;31
2024/01/08 22:17:36;;;;;;;6.43;4.53;;;;;;;-3.42;68.55;100232.09;7246576;40;20261;31
2024/01/08 22:23:11;;;;;;;7.63;5.07;;;;;;;-3.45;68.24;100240.06;7284378;39;20260;31
2024/01/08 22:28:46;;;;;;;9.20;5.37;;;;;;;-3.45;68.15;100229.53;7262939;40;20247;31
2024/01/08 22:34:22;;;;;;;6.83;4.80;;;;;;;-3.47;68.32;100234.88;7256862;40;20256;31
2024/01/08 22:39:42;;;;;;;10.43;5.60;;;;;;;-3.52;68.07;100243.84;7217994;40;20266;31
2024/01/08 22:45:17;;;;;;;6.93;4.77;;;;;;;-3.56;68.16;100236.97;7207661;40;20339;31
2024/01/08 22:50:53;;;;;;;10.10;4.97;;;;;;;-3.61;68.20;100236.25;7199044;40;20322;31
2024/01/08 22:56:13;;;;;;;8.10;4.97;;;;;;;-3.54;68.19;100232.50;7179459;40;20247;31
2024/01/08 23:01:34;;;;;;;7.60;5.03;;;;;;;-3.59;67.98;100230.00;7197260;40;20247;31
2024/01/08 23:07:08;;;;;;;8.33;5.00;;;;;;;-3.71;67.94;100228.66;7216727;40;20241;31
2024/01/08 23:12:28;;;;;;;7.73;4.33;;;;;;;-3.76;68.01;100230.59;7252523;40;20366;31
2024/01/08 23:18:05;;;;;;;6.75;3.85;;;;;;;-3.83;68.21;100222.97;7318673;39;20342;31
2024/01/08 23:23:40;;;;;;;7.30;3.95;;;;;;;-3.84;67.95;100232.63;7258715;39;20449;31
2024/01/08 23:29:15;;;;;;;7.37;4.90;;;;;;;-3.81;68.05;100221.13;7238330;40;20411;31
2024/01/08 23:34:50;;;;;;;6.67;4.60;;;;;;;-3.87;68.41;100239.78;7236771;40;20247;31
2024/01/08 23:40:27;;;;;;;4.70;2.97;;;;;;;-3.80;67.99;100233.37;7205892;40;20322;31
2024/01/08 23:46:02;;;;;;;10.63;6.30;;;;;;;-3.86;67.78;100242.34;7172177;40;20320;31
2024/01/08 23:51:37;;;;;;;8.03;5.17;;;;;;;-3.88;67.84;100243.31;7207129;40;20318;31
2024/01/08 23:57:13;;;;;;;8.17;5.43;;;;;;;-3.92;67.37;100244.34;7183546;40;20240;31
